sensor_id;sensor_type;location;lat;lon;timestamp;P1;durP1;ratioP1;P2;durP2;ratioP2
14516;SDS011;7344;50.864;4.362;2022-09-24T00:01:11;19.57;;;15.83;;
14516;SDS011;7344;50.864;4.362;2022-09-24T00:03:39;19.27;;;16.07;;
14516;SDS011;7344;50.864;4.362;2022-09-24T00:06:07;16.60;;;14.50;;
14516;SDS011;7344;50.864;4.362;2022-09-24T00:08:33;18.07;;;15.73;;
14516;SDS011;7344;50.864;4.362;2022-09-24T00:11:04;20.50;;;15.67;;
14516;SDS011;7344;50.864;4.362;2022-09-24T00:13:31;17.50;;;15.53;;
14516;SDS011;7344;50.864;4.362;2022-09-24T00:16:03;20.17;;;15.47;;
14516;SDS011;7344;50.864;4.362;2022-09-24T00:18:31;18.60;;;14.73;;
14516;SDS011;7344;50.864;4.362;2022-09-24T00:20:58;21.07;;;15.90;;
14516;SDS011;7344;50.864;4.362;2022-09-24T00:23:25;18.90;;;14.83;;
14516;SDS011;7344;50.864;4.362;2022-09-24T00:25:51;16.50;;;14.53;;
14516;SDS011;7344;50.864;4.362;2022-09-24T00:28:35;15.53;;;13.77;;
14516;SDS011;7344;50.864;4.362;2022-09-24T00:31:05;17.13;;;13.87;;
14516;SDS011;7344;50.864;4.362;2022-09-24T00:33:32;17.00;;;14.03;;
14516;SDS011;7344;50.864;4.362;2022-09-24T00:35:59;15.57;;;13.77;;
14516;SDS011;7344;50.864;4.362;2022-09-24T00:38:27;15.10;;;13.03;;
14516;SDS011;7344;50.864;4.362;2022-09-24T00:40:54;18.23;;;13.73;;
14516;SDS011;7344;50.864;4.362;2022-09-24T00:43:27;16.80;;;13.30;;
14516;SDS011;7344;50.864;4.362;2022-09-24T00:48:47;15.03;;;12.97;;
14516;SDS011;7344;50.864;4.362;2022-09-24T00:51:16;17.10;;;13.00;;
14516;SDS011;7344;50.864;4.362;2022-09-24T00:53:47;15.93;;;12.70;;
14516;SDS011;7344;50.864;4.362;2022-09-24T00:56:16;15.57;;;13.13;;
14516;SDS011;7344;50.864;4.362;2022-09-24T00:58:46;15.93;;;12.37;;
14516;SDS011;7344;50.864;4.362;2022-09-24T01:01:16;17.17;;;13.17;;
14516;SDS011;7344;50.864;4.362;2022-09-24T01:03:43;16.57;;;12.67;;
14516;SDS011;7344;50.864;4.362;2022-09-24T01:06:11;14.43;;;12.33;;
14516;SDS011;7344;50.864;4.362;2022-09-24T01:08:37;13.37;;;11.93;;
14516;SDS011;7344;50.864;4.362;2022-09-24T01:20:19;17.50;;;13.70;;
14516;SDS011;7344;50.864;4.362;2022-09-24T01:31:21;20.67;;;15.73;;
14516;SDS011;7344;50.864;4.362;2022-09-24T01:34:10;19.97;;;16.67;;
14516;SDS011;7344;50.864;4.362;2022-09-24T01:36:41;20.03;;;15.90;;
14516;SDS011;7344;50.864;4.362;2022-09-24T01:39:08;21.90;;;16.63;;
14516;SDS011;7344;50.864;4.362;2022-09-24T01:41:35;20.27;;;17.13;;
14516;SDS011;7344;50.864;4.362;2022-09-24T01:44:03;21.47;;;16.90;;
14516;SDS011;7344;50.864;4.362;2022-09-24T01:46:31;23.00;;;17.77;;
14516;SDS011;7344;50.864;4.362;2022-09-24T01:48:58;21.73;;;17.83;;
14516;SDS011;7344;50.864;4.362;2022-09-24T01:51:24;21.43;;;18.80;;
14516;SDS011;7344;50.864;4.362;2022-09-24T01:57:13;23.17;;;18.20;;
14516;SDS011;7344;50.864;4.362;2022-09-24T02:00:04;23.73;;;18.53;;
14516;SDS011;7344;50.864;4.362;2022-09-24T02:05:24;22.50;;;18.07;;
14516;SDS011;7344;50.864;4.362;2022-09-24T02:08:06;21.87;;;18.17;;
14516;SDS011;7344;50.864;4.362;2022-09-24T02:10:53;22.83;;;16.80;;
14516;SDS011;7344;50.864;4.362;2022-09-24T02:13:28;23.43;;;18.87;;
14516;SDS011;7344;50.864;4.362;2022-09-24T02:16:02;24.67;;;19.17;;
14516;SDS011;7344;50.864;4.362;2022-09-24T02:18:32;20.83;;;17.27;;
14516;SDS011;7344;50.864;4.362;2022-09-24T02:21:02;21.67;;;17.63;;
14516;SDS011;7344;50.864;4.362;2022-09-24T02:23:32;18.70;;;16.40;;
14516;SDS011;7344;50.864;4.362;2022-09-24T02:26:03;20.37;;;16.53;;
14516;SDS011;7344;50.864;4.362;2022-09-24T02:28:30;20.37;;;15.93;;
14516;SDS011;7344;50.864;4.362;2022-09-24T02:31:01;19.87;;;16.30;;
14516;SDS011;7344;50.864;4.362;2022-09-24T02:33:35;19.63;;;16.30;;
14516;SDS011;7344;50.864;4.362;2022-09-24T02:36:21;18.20;;;16.10;;
14516;SDS011;7344;50.864;4.362;2022-09-24T02:38:49;20.70;;;16.73;;
14516;SDS011;7344;50.864;4.362;2022-09-24T02:41:15;24.30;;;17.53;;
14516;SDS011;7344;50.864;4.362;2022-09-24T02:43:41;20.67;;;16.97;;
14516;SDS011;7344;50.864;4.362;2022-09-24T02:46:07;21.93;;;17.70;;
14516;SDS011;7344;50.864;4.362;2022-09-24T02:48:34;21.93;;;17.30;;
14516;SDS011;7344;50.864;4.362;2022-09-24T02:51:01;22.63;;;17.07;;
14516;SDS011;7344;50.864;4.362;2022-09-24T02:53:28;22.97;;;18.40;;
14516;SDS011;7344;50.864;4.362;2022-09-24T02:55:54;23.20;;;17.70;;
14516;SDS011;7344;50.864;4.362;2022-09-24T02:58:20;21.83;;;18.50;;
14516;SDS011;7344;50.864;4.362;2022-09-24T03:00:45;24.37;;;18.67;;
14516;SDS011;7344;50.864;4.362;2022-09-24T03:03:11;23.23;;;17.23;;
14516;SDS011;7344;50.864;4.362;2022-09-24T03:05:36;24.23;;;18.60;;
14516;SDS011;7344;50.864;4.362;2022-09-24T03:08:02;21.97;;;18.43;;
14516;SDS011;7344;50.864;4.362;2022-09-24T03:10:28;23.90;;;19.07;;
14516;SDS011;7344;50.864;4.362;2022-09-24T03:12:54;23.53;;;19.47;;
14516;SDS011;7344;50.864;4.362;2022-09-24T03:15:20;24.40;;;19.03;;
14516;SDS011;7344;50.864;4.362;2022-09-24T03:17:46;23.63;;;19.67;;
14516;SDS011;7344;50.864;4.362;2022-09-24T03:20:12;26.53;;;19.80;;
14516;SDS011;7344;50.864;4.362;2022-09-24T03:22:38;23.93;;;19.03;;
14516;SDS011;7344;50.864;4.362;2022-09-24T03:25:03;24.47;;;19.77;;
14516;SDS011;7344;50.864;4.362;2022-09-24T03:27:29;23.23;;;18.37;;
14516;SDS011;7344;50.864;4.362;2022-09-24T03:29:55;24.43;;;19.27;;
14516;SDS011;7344;50.864;4.362;2022-09-24T03:32:39;26.23;;;18.97;;
14516;SDS011;7344;50.864;4.362;2022-09-24T03:35:05;26.13;;;19.70;;
14516;SDS011;7344;50.864;4.362;2022-09-24T03:37:30;25.97;;;19.57;;
14516;SDS011;7344;50.864;4.362;2022-09-24T03:39:57;24.00;;;19.17;;
14516;SDS011;7344;50.864;4.362;2022-09-24T03:42:23;22.90;;;18.77;;
14516;SDS011;7344;50.864;4.362;2022-09-24T03:44:48;26.13;;;19.73;;
14516;SDS011;7344;50.864;4.362;2022-09-24T03:47:14;24.77;;;20.13;;
14516;SDS011;7344;50.864;4.362;2022-09-24T03:49:40;26.80;;;20.50;;
14516;SDS011;7344;50.864;4.362;2022-09-24T03:52:06;28.20;;;20.43;;
14516;SDS011;7344;50.864;4.362;2022-09-24T03:54:32;24.70;;;21.03;;
14516;SDS011;7344;50.864;4.362;2022-09-24T03:56:57;28.13;;;21.10;;
14516;SDS011;7344;50.864;4.362;2022-09-24T03:59:23;29.50;;;21.83;;
14516;SDS011;7344;50.864;4.362;2022-09-24T04:01:48;26.33;;;21.00;;
14516;SDS011;7344;50.864;4.362;2022-09-24T04:04:14;31.77;;;21.73;;
14516;SDS011;7344;50.864;4.362;2022-09-24T04:06:40;28.60;;;21.90;;
14516;SDS011;7344;50.864;4.362;2022-09-24T04:09:06;26.60;;;20.70;;
14516;SDS011;7344;50.864;4.362;2022-09-24T04:11:32;27.80;;;21.33;;
14516;SDS011;7344;50.864;4.362;2022-09-24T04:13:59;28.20;;;21.20;;
14516;SDS011;7344;50.864;4.362;2022-09-24T04:16:25;28.47;;;21.77;;
14516;SDS011;7344;50.864;4.362;2022-09-24T04:18:50;29.53;;;21.73;;
14516;SDS011;7344;50.864;4.362;2022-09-24T04:21:16;27.17;;;22.03;;
14516;SDS011;7344;50.864;4.362;2022-09-24T04:23:42;32.23;;;22.93;;
14516;SDS011;7344;50.864;4.362;2022-09-24T04:26:07;30.27;;;22.80;;
14516;SDS011;7344;50.864;4.362;2022-09-24T04:28:33;29.50;;;22.43;;
14516;SDS011;7344;50.864;4.362;2022-09-24T04:30:59;32.23;;;22.93;;
14516;SDS011;7344;50.864;4.362;2022-09-24T04:33:25;27.50;;;21.77;;
14516;SDS011;7344;50.864;4.362;2022-09-24T04:35:51;27.63;;;21.83;;
14516;SDS011;7344;50.864;4.362;2022-09-24T04:38:16;30.53;;;23.03;;
14516;SDS011;7344;50.864;4.362;2022-09-24T04:40:43;28.93;;;21.80;;
14516;SDS011;7344;50.864;4.362;2022-09-24T04:43:10;31.30;;;22.73;;
14516;SDS011;7344;50.864;4.362;2022-09-24T04:45:36;30.20;;;21.83;;
14516;SDS011;7344;50.864;4.362;2022-09-24T04:48:02;29.27;;;22.17;;
14516;SDS011;7344;50.864;4.362;2022-09-24T04:50:28;29.73;;;23.17;;
14516;SDS011;7344;50.864;4.362;2022-09-24T04:52:57;29.93;;;21.70;;
14516;SDS011;7344;50.864;4.362;2022-09-24T04:55:23;30.90;;;22.63;;
14516;SDS011;7344;50.864;4.362;2022-09-24T04:57:49;28.13;;;21.27;;
14516;SDS011;7344;50.864;4.362;2022-09-24T05:00:16;25.07;;;20.67;;
14516;SDS011;7344;50.864;4.362;2022-09-24T05:02:43;27.63;;;21.53;;
14516;SDS011;7344;50.864;4.362;2022-09-24T05:05:09;24.73;;;19.33;;
14516;SDS011;7344;50.864;4.362;2022-09-24T05:07:36;28.50;;;22.17;;
14516;SDS011;7344;50.864;4.362;2022-09-24T05:10:02;28.60;;;21.87;;
14516;SDS011;7344;50.864;4.362;2022-09-24T05:12:28;25.90;;;20.43;;
14516;SDS011;7344;50.864;4.362;2022-09-24T05:14:53;27.83;;;20.90;;
14516;SDS011;7344;50.864;4.362;2022-09-24T05:17:19;27.93;;;20.57;;
14516;SDS011;7344;50.864;4.362;2022-09-24T05:19:45;30.57;;;21.80;;
14516;SDS011;7344;50.864;4.362;2022-09-24T05:22:11;30.77;;;22.07;;
14516;SDS011;7344;50.864;4.362;2022-09-24T05:24:36;24.70;;;19.77;;
14516;SDS011;7344;50.864;4.362;2022-09-24T05:27:02;25.87;;;20.33;;
14516;SDS011;7344;50.864;4.362;2022-09-24T05:29:35;28.87;;;21.83;;
14516;SDS011;7344;50.864;4.362;2022-09-24T05:32:02;26.23;;;20.67;;
14516;SDS011;7344;50.864;4.362;2022-09-24T05:34:29;26.93;;;19.73;;
14516;SDS011;7344;50.864;4.362;2022-09-24T05:36:55;29.07;;;21.00;;
14516;SDS011;7344;50.864;4.362;2022-09-24T05:39:21;27.43;;;20.47;;
14516;SDS011;7344;50.864;4.362;2022-09-24T05:41:46;29.27;;;21.07;;
14516;SDS011;7344;50.864;4.362;2022-09-24T05:44:12;30.77;;;22.00;;
14516;SDS011;7344;50.864;4.362;2022-09-24T05:46:37;26.60;;;20.63;;
14516;SDS011;7344;50.864;4.362;2022-09-24T05:49:03;27.43;;;20.87;;
14516;SDS011;7344;50.864;4.362;2022-09-24T05:51:28;23.80;;;19.10;;
14516;SDS011;7344;50.864;4.362;2022-09-24T05:53:54;25.63;;;20.27;;
14516;SDS011;7344;50.864;4.362;2022-09-24T05:56:20;27.10;;;21.10;;
14516;SDS011;7344;50.864;4.362;2022-09-24T05:58:48;30.27;;;21.53;;
14516;SDS011;7344;50.864;4.362;2022-09-24T06:01:14;29.03;;;21.00;;
14516;SDS011;7344;50.864;4.362;2022-09-24T06:03:40;27.17;;;20.97;;
14516;SDS011;7344;50.864;4.362;2022-09-24T06:06:06;27.00;;;21.00;;
14516;SDS011;7344;50.864;4.362;2022-09-24T06:08:32;30.70;;;22.63;;
14516;SDS011;7344;50.864;4.362;2022-09-24T06:11:04;27.67;;;20.83;;
14516;SDS011;7344;50.864;4.362;2022-09-24T06:13:31;27.87;;;21.27;;
14516;SDS011;7344;50.864;4.362;2022-09-24T06:16:08;29.43;;;21.17;;
14516;SDS011;7344;50.864;4.362;2022-09-24T06:18:37;28.53;;;21.30;;
14516;SDS011;7344;50.864;4.362;2022-09-24T06:21:08;27.63;;;21.67;;
14516;SDS011;7344;50.864;4.362;2022-09-24T06:23:36;26.13;;;20.53;;
14516;SDS011;7344;50.864;4.362;2022-09-24T06:26:03;26.70;;;19.97;;
14516;SDS011;7344;50.864;4.362;2022-09-24T06:28:31;28.70;;;21.30;;
14516;SDS011;7344;50.864;4.362;2022-09-24T06:31:00;28.47;;;20.53;;
14516;SDS011;7344;50.864;4.362;2022-09-24T06:33:26;29.87;;;21.37;;
14516;SDS011;7344;50.864;4.362;2022-09-24T06:35:52;29.10;;;20.47;;
14516;SDS011;7344;50.864;4.362;2022-09-24T06:38:18;26.57;;;20.87;;
14516;SDS011;7344;50.864;4.362;2022-09-24T06:40:45;25.30;;;20.83;;
14516;SDS011;7344;50.864;4.362;2022-09-24T06:43:14;26.87;;;20.23;;
14516;SDS011;7344;50.864;4.362;2022-09-24T06:45:42;27.27;;;20.87;;
14516;SDS011;7344;50.864;4.362;2022-09-24T06:48:08;28.70;;;20.27;;
14516;SDS011;7344;50.864;4.362;2022-09-24T06:50:37;26.93;;;20.20;;
14516;SDS011;7344;50.864;4.362;2022-09-24T06:53:05;28.50;;;20.73;;
14516;SDS011;7344;50.864;4.362;2022-09-24T06:55:32;27.47;;;20.80;;
14516;SDS011;7344;50.864;4.362;2022-09-24T06:58:08;26.43;;;20.80;;
14516;SDS011;7344;50.864;4.362;2022-09-24T07:00:36;26.20;;;20.60;;
14516;SDS011;7344;50.864;4.362;2022-09-24T07:03:03;26.93;;;20.60;;
14516;SDS011;7344;50.864;4.362;2022-09-24T07:05:32;29.23;;;21.37;;
14516;SDS011;7344;50.864;4.362;2022-09-24T07:07:58;27.57;;;21.20;;
14516;SDS011;7344;50.864;4.362;2022-09-24T07:10:24;27.27;;;21.07;;
14516;SDS011;7344;50.864;4.362;2022-09-24T07:12:50;25.53;;;20.13;;
14516;SDS011;7344;50.864;4.362;2022-09-24T07:15:16;25.93;;;20.00;;
14516;SDS011;7344;50.864;4.362;2022-09-24T07:17:41;26.70;;;20.03;;
14516;SDS011;7344;50.864;4.362;2022-09-24T07:20:07;26.93;;;20.47;;
14516;SDS011;7344;50.864;4.362;2022-09-24T07:22:36;26.93;;;20.87;;
14516;SDS011;7344;50.864;4.362;2022-09-24T07:25:05;27.27;;;20.17;;
14516;SDS011;7344;50.864;4.362;2022-09-24T07:27:32;28.23;;;19.87;;
14516;SDS011;7344;50.864;4.362;2022-09-24T07:29:57;24.20;;;19.53;;
14516;SDS011;7344;50.864;4.362;2022-09-24T07:32:23;24.43;;;18.67;;
14516;SDS011;7344;50.864;4.362;2022-09-24T07:34:49;23.97;;;18.47;;
14516;SDS011;7344;50.864;4.362;2022-09-24T07:37:15;25.33;;;19.23;;
14516;SDS011;7344;50.864;4.362;2022-09-24T07:39:40;23.77;;;19.10;;
14516;SDS011;7344;50.864;4.362;2022-09-24T07:42:06;23.90;;;18.70;;
14516;SDS011;7344;50.864;4.362;2022-09-24T07:44:31;23.43;;;18.30;;
14516;SDS011;7344;50.864;4.362;2022-09-24T07:46:57;23.83;;;18.97;;
14516;SDS011;7344;50.864;4.362;2022-09-24T07:49:22;22.07;;;18.20;;
14516;SDS011;7344;50.864;4.362;2022-09-24T07:51:48;23.77;;;18.67;;
14516;SDS011;7344;50.864;4.362;2022-09-24T07:54:14;21.73;;;18.20;;
14516;SDS011;7344;50.864;4.362;2022-09-24T07:56:40;24.63;;;18.77;;
14516;SDS011;7344;50.864;4.362;2022-09-24T07:59:06;29.00;;;20.13;;
14516;SDS011;7344;50.864;4.362;2022-09-24T08:01:35;21.40;;;18.37;;
14516;SDS011;7344;50.864;4.362;2022-09-24T08:04:01;21.27;;;17.70;;
14516;SDS011;7344;50.864;4.362;2022-09-24T08:06:28;24.47;;;17.40;;
14516;SDS011;7344;50.864;4.362;2022-09-24T08:08:57;23.93;;;17.10;;
14516;SDS011;7344;50.864;4.362;2022-09-24T08:11:23;20.93;;;16.33;;
14516;SDS011;7344;50.864;4.362;2022-09-24T08:13:49;21.53;;;17.60;;
14516;SDS011;7344;50.864;4.362;2022-09-24T08:16:15;21.00;;;16.50;;
14516;SDS011;7344;50.864;4.362;2022-09-24T08:18:42;19.53;;;16.53;;
14516;SDS011;7344;50.864;4.362;2022-09-24T08:21:08;20.87;;;17.00;;
14516;SDS011;7344;50.864;4.362;2022-09-24T08:23:35;17.60;;;15.70;;
14516;SDS011;7344;50.864;4.362;2022-09-24T08:26:02;22.07;;;16.97;;
14516;SDS011;7344;50.864;4.362;2022-09-24T08:28:28;23.00;;;16.57;;
14516;SDS011;7344;50.864;4.362;2022-09-24T08:30:58;19.53;;;16.13;;
14516;SDS011;7344;50.864;4.362;2022-09-24T08:33:25;27.20;;;21.77;;
14516;SDS011;7344;50.864;4.362;2022-09-24T08:35:51;23.87;;;17.30;;
14516;SDS011;7344;50.864;4.362;2022-09-24T08:38:17;21.47;;;17.50;;
14516;SDS011;7344;50.864;4.362;2022-09-24T08:40:48;20.33;;;15.73;;
14516;SDS011;7344;50.864;4.362;2022-09-24T08:43:30;19.83;;;15.57;;
14516;SDS011;7344;50.864;4.362;2022-09-24T08:46:23;20.17;;;16.33;;
14516;SDS011;7344;50.864;4.362;2022-09-24T08:49:14;22.20;;;16.83;;
14516;SDS011;7344;50.864;4.362;2022-09-24T08:51:56;17.73;;;14.67;;
14516;SDS011;7344;50.864;4.362;2022-09-24T08:54:31;18.37;;;16.17;;
14516;SDS011;7344;50.864;4.362;2022-09-24T08:56:59;23.97;;;18.50;;
14516;SDS011;7344;50.864;4.362;2022-09-24T08:59:32;21.20;;;16.63;;
14516;SDS011;7344;50.864;4.362;2022-09-24T09:07:13;20.67;;;16.40;;
14516;SDS011;7344;50.864;4.362;2022-09-24T09:10:09;19.70;;;16.00;;
14516;SDS011;7344;50.864;4.362;2022-09-24T09:12:47;20.40;;;15.73;;
14516;SDS011;7344;50.864;4.362;2022-09-24T09:15:22;18.17;;;14.93;;
14516;SDS011;7344;50.864;4.362;2022-09-24T09:17:56;22.67;;;16.37;;
14516;SDS011;7344;50.864;4.362;2022-09-24T09:22:52;18.43;;;14.37;;
14516;SDS011;7344;50.864;4.362;2022-09-24T09:25:22;19.63;;;15.60;;
14516;SDS011;7344;50.864;4.362;2022-09-24T09:27:50;19.00;;;15.00;;
14516;SDS011;7344;50.864;4.362;2022-09-24T09:30:26;17.10;;;14.73;;
14516;SDS011;7344;50.864;4.362;2022-09-24T09:33:07;18.67;;;14.87;;
14516;SDS011;7344;50.864;4.362;2022-09-24T09:38:40;19.93;;;16.40;;
14516;SDS011;7344;50.864;4.362;2022-09-24T09:41:18;19.17;;;15.77;;
14516;SDS011;7344;50.864;4.362;2022-09-24T09:43:45;20.00;;;16.03;;
14516;SDS011;7344;50.864;4.362;2022-09-24T09:46:17;23.40;;;16.40;;
14516;SDS011;7344;50.864;4.362;2022-09-24T09:48:51;18.97;;;16.10;;
14516;SDS011;7344;50.864;4.362;2022-09-24T09:51:21;22.60;;;17.57;;
14516;SDS011;7344;50.864;4.362;2022-09-24T09:54:08;23.33;;;16.30;;
14516;SDS011;7344;50.864;4.362;2022-09-24T09:56:34;20.93;;;17.30;;
14516;SDS011;7344;50.864;4.362;2022-09-24T10:01:37;21.03;;;15.60;;
14516;SDS011;7344;50.864;4.362;2022-09-24T10:04:05;18.37;;;15.23;;
14516;SDS011;7344;50.864;4.362;2022-09-24T10:07:02;17.67;;;14.83;;
14516;SDS011;7344;50.864;4.362;2022-09-24T10:09:30;15.67;;;14.03;;
14516;SDS011;7344;50.864;4.362;2022-09-24T10:12:05;16.90;;;14.87;;
14516;SDS011;7344;50.864;4.362;2022-09-24T10:14:39;19.40;;;15.10;;
14516;SDS011;7344;50.864;4.362;2022-09-24T10:17:04;19.10;;;15.20;;
14516;SDS011;7344;50.864;4.362;2022-09-24T10:19:34;21.30;;;16.43;;
14516;SDS011;7344;50.864;4.362;2022-09-24T10:22:14;19.37;;;16.90;;
14516;SDS011;7344;50.864;4.362;2022-09-24T10:24:41;21.10;;;16.80;;
14516;SDS011;7344;50.864;4.362;2022-09-24T10:27:11;20.23;;;17.67;;
14516;SDS011;7344;50.864;4.362;2022-09-24T10:29:38;21.67;;;17.47;;
14516;SDS011;7344;50.864;4.362;2022-09-24T10:32:22;19.17;;;16.07;;
14516;SDS011;7344;50.864;4.362;2022-09-24T10:34:57;20.23;;;16.83;;
14516;SDS011;7344;50.864;4.362;2022-09-24T10:37:30;24.13;;;17.60;;
14516;SDS011;7344;50.864;4.362;2022-09-24T10:39:59;21.63;;;17.47;;
14516;SDS011;7344;50.864;4.362;2022-09-24T10:42:35;19.70;;;15.37;;
14516;SDS011;7344;50.864;4.362;2022-09-24T10:45:01;19.07;;;15.07;;
14516;SDS011;7344;50.864;4.362;2022-09-24T10:47:38;19.30;;;15.63;;
14516;SDS011;7344;50.864;4.362;2022-09-24T10:50:34;23.80;;;16.80;;
14516;SDS011;7344;50.864;4.362;2022-09-24T10:53:31;22.63;;;16.20;;
14516;SDS011;7344;50.864;4.362;2022-09-24T11:01:48;17.97;;;15.03;;
14516;SDS011;7344;50.864;4.362;2022-09-24T11:04:52;21.33;;;16.63;;
14516;SDS011;7344;50.864;4.362;2022-09-24T11:10:09;17.93;;;16.03;;
14516;SDS011;7344;50.864;4.362;2022-09-24T11:18:55;18.60;;;16.07;;
14516;SDS011;7344;50.864;4.362;2022-09-24T11:32:21;20.77;;;15.97;;
14516;SDS011;7344;50.864;4.362;2022-09-24T11:35:14;19.50;;;15.40;;
14516;SDS011;7344;50.864;4.362;2022-09-24T11:38:09;20.63;;;16.23;;
14516;SDS011;7344;50.864;4.362;2022-09-24T11:43:47;20.20;;;16.50;;
14516;SDS011;7344;50.864;4.362;2022-09-24T11:55:17;22.37;;;16.60;;
14516;SDS011;7344;50.864;4.362;2022-09-24T11:58:03;18.60;;;15.50;;
14516;SDS011;7344;50.864;4.362;2022-09-24T12:00:39;19.37;;;16.17;;
14516;SDS011;7344;50.864;4.362;2022-09-24T12:06:12;20.80;;;16.97;;
14516;SDS011;7344;50.864;4.362;2022-09-24T12:08:46;22.73;;;17.60;;
14516;SDS011;7344;50.864;4.362;2022-09-24T12:11:32;24.17;;;17.63;;
14516;SDS011;7344;50.864;4.362;2022-09-24T12:14:04;19.87;;;17.43;;
14516;SDS011;7344;50.864;4.362;2022-09-24T12:16:41;22.20;;;16.93;;
14516;SDS011;7344;50.864;4.362;2022-09-24T12:19:19;20.97;;;17.23;;
14516;SDS011;7344;50.864;4.362;2022-09-24T12:22:06;22.97;;;18.47;;
14516;SDS011;7344;50.864;4.362;2022-09-24T12:24:53;23.77;;;19.03;;
14516;SDS011;7344;50.864;4.362;2022-09-24T12:27:27;22.43;;;18.83;;
14516;SDS011;7344;50.864;4.362;2022-09-24T12:38:54;21.70;;;16.93;;
14516;SDS011;7344;50.864;4.362;2022-09-24T12:46:58;18.47;;;15.80;;
14516;SDS011;7344;50.864;4.362;2022-09-24T12:51:51;20.33;;;16.50;;
14516;SDS011;7344;50.864;4.362;2022-09-24T13:00:00;17.37;;;15.33;;
14516;SDS011;7344;50.864;4.362;2022-09-24T13:02:47;15.80;;;14.13;;
14516;SDS011;7344;50.864;4.362;2022-09-24T13:05:14;17.73;;;14.90;;
14516;SDS011;7344;50.864;4.362;2022-09-24T13:10:52;18.87;;;15.53;;
14516;SDS011;7344;50.864;4.362;2022-09-24T13:13:25;17.93;;;15.47;;
14516;SDS011;7344;50.864;4.362;2022-09-24T13:15:59;19.27;;;15.87;;
14516;SDS011;7344;50.864;4.362;2022-09-24T13:18:40;18.10;;;15.00;;
14516;SDS011;7344;50.864;4.362;2022-09-24T13:21:15;17.17;;;15.37;;
14516;SDS011;7344;50.864;4.362;2022-09-24T13:23:46;20.20;;;17.43;;
14516;SDS011;7344;50.864;4.362;2022-09-24T13:26:24;17.73;;;15.27;;
14516;SDS011;7344;50.864;4.362;2022-09-24T13:28:56;21.13;;;16.53;;
14516;SDS011;7344;50.864;4.362;2022-09-24T13:31:29;18.83;;;16.93;;
14516;SDS011;7344;50.864;4.362;2022-09-24T13:34:26;18.70;;;16.50;;
14516;SDS011;7344;50.864;4.362;2022-09-24T13:36:54;20.27;;;17.67;;
14516;SDS011;7344;50.864;4.362;2022-09-24T13:45:05;25.07;;;22.03;;
14516;SDS011;7344;50.864;4.362;2022-09-24T13:47:42;21.83;;;19.53;;
14516;SDS011;7344;50.864;4.362;2022-09-24T13:50:16;22.90;;;19.50;;
14516;SDS011;7344;50.864;4.362;2022-09-24T13:55:44;19.53;;;17.57;;
14516;SDS011;7344;50.864;4.362;2022-09-24T13:58:26;20.83;;;18.57;;
14516;SDS011;7344;50.864;4.362;2022-09-24T14:00:52;19.57;;;17.57;;
14516;SDS011;7344;50.864;4.362;2022-09-24T14:03:25;20.33;;;18.07;;
14516;SDS011;7344;50.864;4.362;2022-09-24T14:05:53;21.23;;;18.87;;
14516;SDS011;7344;50.864;4.362;2022-09-24T14:08:21;20.93;;;18.80;;
14516;SDS011;7344;50.864;4.362;2022-09-24T14:10:48;20.60;;;18.43;;
14516;SDS011;7344;50.864;4.362;2022-09-24T14:13:19;19.33;;;17.43;;
14516;SDS011;7344;50.864;4.362;2022-09-24T14:15:59;18.20;;;16.60;;
14516;SDS011;7344;50.864;4.362;2022-09-24T14:18:32;18.00;;;16.40;;
14516;SDS011;7344;50.864;4.362;2022-09-24T14:21:00;18.60;;;16.87;;
14516;SDS011;7344;50.864;4.362;2022-09-24T14:23:50;17.60;;;15.90;;
14516;SDS011;7344;50.864;4.362;2022-09-24T14:26:30;17.17;;;15.53;;
14516;SDS011;7344;50.864;4.362;2022-09-24T14:29:02;16.40;;;14.93;;
14516;SDS011;7344;50.864;4.362;2022-09-24T14:31:51;16.57;;;15.07;;
14516;SDS011;7344;50.864;4.362;2022-09-24T14:37:06;15.60;;;14.30;;
14516;SDS011;7344;50.864;4.362;2022-09-24T14:39:36;15.37;;;13.73;;
14516;SDS011;7344;50.864;4.362;2022-09-24T14:42:07;14.97;;;13.47;;
14516;SDS011;7344;50.864;4.362;2022-09-24T14:44:37;14.03;;;12.67;;
14516;SDS011;7344;50.864;4.362;2022-09-24T14:47:19;11.17;;;10.30;;
14516;SDS011;7344;50.864;4.362;2022-09-24T14:49:52;10.47;;;9.17;;
14516;SDS011;7344;50.864;4.362;2022-09-24T14:57:40;8.83;;;7.93;;
14516;SDS011;7344;50.864;4.362;2022-09-24T15:00:17;9.13;;;8.13;;
14516;SDS011;7344;50.864;4.362;2022-09-24T15:02:49;9.17;;;7.77;;
14516;SDS011;7344;50.864;4.362;2022-09-24T15:05:15;10.10;;;8.63;;
14516;SDS011;7344;50.864;4.362;2022-09-24T15:07:41;9.93;;;8.83;;
14516;SDS011;7344;50.864;4.362;2022-09-24T15:10:16;11.57;;;10.37;;
14516;SDS011;7344;50.864;4.362;2022-09-24T15:12:45;12.13;;;10.80;;
14516;SDS011;7344;50.864;4.362;2022-09-24T15:17:45;12.53;;;10.23;;
14516;SDS011;7344;50.864;4.362;2022-09-24T15:20:11;12.27;;;8.77;;
14516;SDS011;7344;50.864;4.362;2022-09-24T15:22:37;9.93;;;9.13;;
14516;SDS011;7344;50.864;4.362;2022-09-24T15:25:03;9.53;;;8.63;;
14516;SDS011;7344;50.864;4.362;2022-09-24T15:27:33;8.53;;;7.77;;
14516;SDS011;7344;50.864;4.362;2022-09-24T15:30:02;8.10;;;7.30;;
14516;SDS011;7344;50.864;4.362;2022-09-24T15:32:29;8.40;;;7.77;;
14516;SDS011;7344;50.864;4.362;2022-09-24T15:34:56;9.30;;;8.50;;
14516;SDS011;7344;50.864;4.362;2022-09-24T15:37:23;9.77;;;8.87;;
14516;SDS011;7344;50.864;4.362;2022-09-24T15:39:50;10.27;;;9.17;;
14516;SDS011;7344;50.864;4.362;2022-09-24T15:42:23;10.30;;;9.40;;
14516;SDS011;7344;50.864;4.362;2022-09-24T15:44:50;10.93;;;9.17;;
14516;SDS011;7344;50.864;4.362;2022-09-24T15:47:17;12.43;;;11.23;;
14516;SDS011;7344;50.864;4.362;2022-09-24T15:49:43;12.40;;;11.20;;
14516;SDS011;7344;50.864;4.362;2022-09-24T15:52:13;12.87;;;11.67;;
14516;SDS011;7344;50.864;4.362;2022-09-24T15:54:54;14.63;;;12.73;;
14516;SDS011;7344;50.864;4.362;2022-09-24T15:57:21;14.37;;;12.93;;
14516;SDS011;7344;50.864;4.362;2022-09-24T15:59:48;14.50;;;13.07;;
14516;SDS011;7344;50.864;4.362;2022-09-24T16:02:22;15.27;;;13.67;;
14516;SDS011;7344;50.864;4.362;2022-09-24T16:04:51;16.70;;;15.10;;
14516;SDS011;7344;50.864;4.362;2022-09-24T16:07:17;17.60;;;15.60;;
14516;SDS011;7344;50.864;4.362;2022-09-24T16:09:43;17.57;;;15.67;;
14516;SDS011;7344;50.864;4.362;2022-09-24T16:12:15;20.13;;;15.83;;
14516;SDS011;7344;50.864;4.362;2022-09-24T16:14:41;18.23;;;16.20;;
14516;SDS011;7344;50.864;4.362;2022-09-24T16:17:07;16.77;;;14.93;;
14516;SDS011;7344;50.864;4.362;2022-09-24T16:19:33;16.87;;;15.03;;
14516;SDS011;7344;50.864;4.362;2022-09-24T16:21:58;16.90;;;15.10;;
14516;SDS011;7344;50.864;4.362;2022-09-24T16:24:25;18.30;;;16.27;;
14516;SDS011;7344;50.864;4.362;2022-09-24T16:26:51;16.20;;;14.53;;
14516;SDS011;7344;50.864;4.362;2022-09-24T16:29:17;17.80;;;14.77;;
14516;SDS011;7344;50.864;4.362;2022-09-24T16:31:43;17.53;;;15.67;;
14516;SDS011;7344;50.864;4.362;2022-09-24T16:34:10;17.87;;;15.27;;
14516;SDS011;7344;50.864;4.362;2022-09-24T16:36:36;20.63;;;15.90;;
14516;SDS011;7344;50.864;4.362;2022-09-24T16:39:02;19.07;;;16.60;;
14516;SDS011;7344;50.864;4.362;2022-09-24T16:41:28;21.23;;;17.17;;
14516;SDS011;7344;50.864;4.362;2022-09-24T16:43:58;18.43;;;16.40;;
14516;SDS011;7344;50.864;4.362;2022-09-24T16:46:25;20.87;;;17.60;;
14516;SDS011;7344;50.864;4.362;2022-09-24T16:48:51;20.43;;;16.87;;
14516;SDS011;7344;50.864;4.362;2022-09-24T16:51:16;19.63;;;16.13;;
14516;SDS011;7344;50.864;4.362;2022-09-24T16:53:42;20.83;;;16.90;;
14516;SDS011;7344;50.864;4.362;2022-09-24T16:56:12;18.10;;;15.27;;
14516;SDS011;7344;50.864;4.362;2022-09-24T16:58:39;19.03;;;15.63;;